Weather History for Farmington, MO

Change the Weather History Date:

Saturday, December 29, 2012

  Actual Average Record
Temperature  
Mean Temperature 21 °F -  
Max Temperature 30 °F 39 °F 62 °F (2008)
Min Temperature 10 °F 24 °F 10 °F (2012)
Degree Days  
Heating Degree Days 44    
Moisture  
Dew Point 20 °F    
Average Humidity 84    
Maximum Humidity 100    
Minimum Humidity 69    
Precipitation  
Precipitation 0.02 in - - ()
Sea Level Pressure  
Sea Level Pressure 30.15 in    
Wind  
Wind Speed 8 mph (WNW)    
Max Wind Speed 16 mph    
Max Gust Speed 26 mph    
Visibility 6 miles    
Events      
Averages and records for this station are not official NWS values.
T = Trace of Precipitation, MM = Missing Value Source: NWS Daily Summary

Daily Weather History Graph

Daily Weather History Graph

Search for Another Location

Airport:

Trip Planner

Search our weather history database for the weather conditions in past years. The results will help you decide how hot, cold, wet, or windy it might be!

Date:

Astronomy

Dec. 29, 2012 Rise Set
Actual Time 7:16 AM CST 4:51 PM CST
Civil Twilight 6:47 AM CST 5:20 PM CST
Nautical Twilight 6:14 AM CST 5:53 PM CST
Astronomical Twilight 5:42 AM CST 6:25 PM CST
Moon 6:22 PM CST (12/29) 7:51 AM CST (12/29)
Length of Visible Light 10h 33m
Length of Day
9h 35m
Full, 98% of the Moon is Illuminated
Dec 29
Full
Jan 4
Last Quarter
Jan 11
New
Jan 18
First Quarter
Jan 26
Full

Hourly Weather History & Observations

Time (CST) Temp. Windchill Dew Point Humidity Pressure Visibility Wind Dir Wind Speed Gust Speed Precip Events Conditions
12:15 AM 30.2 °F 23.4 °F 28.4 °F 93% 29.91 in 6.0 mi WNW 6.9 mph - N/A   Overcast
12:35 AM 30.2 °F 23.4 °F 28.4 °F 93% 29.91 in 6.0 mi WNW 6.9 mph - 0.01 in   Overcast
12:55 AM 30.2 °F 23.4 °F 28.4 °F 93% 29.91 in 8.0 mi WNW 6.9 mph - 0.01 in   Overcast
1:15 AM 30.2 °F 24.3 °F 28.4 °F 93% 29.92 in 7.0 mi WNW 5.8 mph - N/A   Overcast
1:35 AM 30.2 °F 21.9 °F 26.6 °F 86% 29.92 in 6.0 mi WNW 9.2 mph - N/A   Overcast
1:55 AM 30.2 °F 23.4 °F 28.4 °F 93% 29.93 in 5.0 mi WNW 6.9 mph - N/A   Overcast
2:15 AM 30.2 °F 22.6 °F 26.6 °F 86% 29.94 in 5.0 mi West 8.1 mph - 0.01 in   Overcast
2:35 AM 30.2 °F 22.6 °F 26.6 °F 86% 29.95 in 5.0 mi WNW 8.1 mph - 0.01 in   Overcast
2:55 AM 30.2 °F 22.6 °F 26.6 °F 86% 29.95 in 5.0 mi WNW 8.1 mph - 0.01 in   Overcast
3:15 AM 30.2 °F 23.4 °F 26.6 °F 86% 29.96 in 5.0 mi WNW 6.9 mph - N/A   Overcast
3:35 AM 30.2 °F 22.6 °F 26.6 °F 86% 29.97 in 5.0 mi WNW 8.1 mph - N/A   Overcast
3:55 AM 30.2 °F 22.6 °F 26.6 °F 86% 29.96 in 5.0 mi WNW 8.1 mph - N/A   Overcast
4:15 AM 28.4 °F 19.1 °F 26.6 °F 93% 29.97 in 5.0 mi WNW 10.4 mph 16.1 mph N/A   Overcast
4:35 AM 28.4 °F 19.7 °F 26.6 °F 93% 29.97 in 5.0 mi West 9.2 mph - N/A   Overcast
4:55 AM 28.4 °F 18.5 °F 26.6 °F 93% 29.97 in 5.0 mi WNW 11.5 mph 18.4 mph N/A   Overcast
5:15 AM 28.4 °F 19.7 °F 24.8 °F 86% 29.98 in 5.0 mi WNW 9.2 mph - N/A   Overcast
5:35 AM 28.4 °F 18.5 °F 24.8 °F 86% 30.00 in 5.0 mi West 11.5 mph 20.7 mph N/A   Overcast
6:15 AM 28.4 °F 18.0 °F 24.8 °F 86% 30.02 in 5.0 mi WNW 12.7 mph 17.3 mph N/A   Overcast
6:35 AM 26.6 °F 18.2 °F 24.8 °F 93% 30.03 in 5.0 mi WNW 8.1 mph - N/A   Overcast
6:55 AM 26.6 °F 17.5 °F 23.0 °F 86% 30.04 in 5.0 mi West 9.2 mph - N/A   Overcast
7:15 AM 26.6 °F 14.7 °F 23.0 °F 86% 30.05 in 4.0 mi WNW 15.0 mph 18.4 mph N/A   Overcast
7:35 AM 26.6 °F 16.8 °F 21.2 °F 80% 30.06 in 4.0 mi West 10.4 mph 18.4 mph N/A   Overcast
7:55 AM 26.6 °F 17.5 °F 21.2 °F 80% 30.07 in 4.0 mi WNW 9.2 mph - N/A   Overcast
8:15 AM 26.6 °F 17.5 °F 21.2 °F 80% 30.08 in 4.0 mi WNW 9.2 mph - N/A   Overcast
8:35 AM 26.6 °F 16.8 °F 21.2 °F 80% 30.10 in 3.0 mi West 10.4 mph 17.3 mph N/A   Overcast
8:55 AM 26.6 °F 17.5 °F 21.2 °F 80% 30.11 in 3.0 mi West 9.2 mph - N/A   Overcast
9:15 AM 26.6 °F 16.2 °F 21.2 °F 80% 30.12 in 3.0 mi West 11.5 mph - N/A   Overcast
9:35 AM 26.6 °F 16.2 °F 21.2 °F 80% 30.13 in 3.0 mi West 11.5 mph - N/A   Overcast
9:55 AM 26.6 °F 15.7 °F 21.2 °F 80% 30.14 in 3.0 mi West 12.7 mph 17.3 mph N/A   Overcast
10:15 AM 26.6 °F 14.7 °F 21.2 °F 80% 30.15 in 3.0 mi WNW 15.0 mph 20.7 mph N/A   Overcast
10:35 AM 26.6 °F 15.2 °F 21.2 °F 80% 30.16 in 4.0 mi WNW 13.8 mph 20.7 mph N/A   Overcast
10:55 AM 26.6 °F 16.8 °F 21.2 °F 80% 30.16 in 4.0 mi WNW 10.4 mph 24.2 mph N/A   Overcast
11:15 AM 26.6 °F 17.5 °F 21.2 °F 80% 30.16 in 5.0 mi WNW 9.2 mph 19.6 mph N/A   Overcast
11:35 AM 26.6 °F 14.3 °F 21.2 °F 80% 30.16 in 5.0 mi WNW 16.1 mph 23.0 mph N/A   Overcast
11:55 AM 26.6 °F 14.3 °F 19.4 °F 74% 30.16 in 7.0 mi WNW 16.1 mph 25.3 mph N/A   Overcast
12:15 PM 26.6 °F 15.2 °F 19.4 °F 74% 30.16 in 5.0 mi WNW 13.8 mph 26.5 mph N/A   Overcast
12:35 PM 24.8 °F 11.9 °F 19.4 °F 80% 30.17 in 8.0 mi West 16.1 mph 23.0 mph N/A   Overcast
12:55 PM 24.8 °F 12.4 °F 19.4 °F 80% 30.17 in 10.0 mi WNW 15.0 mph 18.4 mph N/A   Overcast
1:15 PM 24.8 °F 16.1 °F 19.4 °F 80% 30.18 in 10.0 mi WNW 8.1 mph - N/A   Overcast
1:35 PM 24.8 °F 12.4 °F 17.6 °F 74% 30.18 in 7.0 mi West 15.0 mph 26.5 mph N/A   Overcast
1:55 PM 26.6 °F 15.7 °F 19.4 °F 74% 30.18 in 10.0 mi WNW 12.7 mph 23.0 mph N/A   Overcast
2:15 PM 24.8 °F 16.1 °F 17.6 °F 74% 30.18 in 10.0 mi WNW 8.1 mph 17.3 mph N/A   Overcast
2:35 PM 24.8 °F 12.4 °F 17.6 °F 74% 30.19 in 10.0 mi WNW 15.0 mph 19.6 mph N/A   Overcast
2:55 PM 24.8 °F 17.9 °F 17.6 °F 74% 30.20 in 10.0 mi WNW 5.8 mph 19.6 mph N/A   Overcast
3:15 PM 26.6 °F 16.2 °F 17.6 °F 69% 30.21 in 10.0 mi WNW 11.5 mph 21.9 mph N/A   Mostly Cloudy
3:35 PM 26.6 °F 20.0 °F 17.6 °F 69% 30.23 in 10.0 mi WNW 5.8 mph - N/A   Scattered Clouds
3:55 PM 26.6 °F 20.0 °F 17.6 °F 69% 30.23 in 10.0 mi West 5.8 mph - N/A   Mostly Cloudy
4:15 PM 26.6 °F 21.2 °F 17.6 °F 69% 30.23 in 10.0 mi West 4.6 mph - N/A   Scattered Clouds
4:35 PM 26.6 °F 22.6 °F 17.6 °F 69% 30.23 in 10.0 mi West 3.5 mph - N/A   Clear
4:55 PM 24.8 °F - 17.6 °F 74% 30.24 in 10.0 mi Calm Calm - N/A   Clear
5:15 PM 24.8 °F 19.1 °F 15.8 °F 69% 30.25 in 10.0 mi SW 4.6 mph - N/A   Clear
5:35 PM 21.2 °F 14.9 °F 15.8 °F 80% 30.27 in 10.0 mi WSW 4.6 mph - N/A   Clear
5:55 PM 21.2 °F 14.9 °F 17.6 °F 86% 30.27 in 10.0 mi WSW 4.6 mph - N/A   Clear
6:15 PM 21.2 °F 14.9 °F 17.6 °F 86% 30.28 in 10.0 mi SW 4.6 mph - N/A   Clear
6:35 PM 21.2 °F - 17.6 °F 86% 30.28 in 10.0 mi Calm Calm - N/A   Clear
6:55 PM 19.4 °F - 15.8 °F 86% 30.29 in 10.0 mi Calm Calm - N/A   Clear
7:15 PM 19.4 °F - 15.8 °F 86% 30.30 in 8.0 mi Calm Calm - N/A   Clear
7:35 PM 19.4 °F - 15.8 °F 86% 30.31 in 8.0 mi Calm Calm - N/A   Clear
7:55 PM 15.8 °F - 10.4 °F 79% 30.33 in 5.0 mi Calm Calm - N/A   Clear
8:15 PM 17.6 °F - 17.6 °F 100% 30.33 in 9.0 mi Calm Calm - N/A   Clear
8:55 PM 17.6 °F - 15.8 °F 93% 30.34 in 7.0 mi Calm Calm - N/A   Clear
9:15 PM 17.6 °F - 17.6 °F 100% 30.34 in 5.0 mi Calm Calm - N/A   Clear
9:35 PM 17.6 °F - 15.8 °F 93% 30.34 in 10.0 mi Calm Calm - N/A   Clear
9:55 PM 12.2 °F - 8.6 °F 85% 30.34 in 5.0 mi Calm Calm - N/A   Clear
10:15 PM 15.8 °F 8.6 °F 10.4 °F 79% 30.33 in 2.5 mi South 4.6 mph - N/A   Clear
10:35 PM 12.2 °F - 10.4 °F 92% 30.34 in 3.0 mi Calm Calm - N/A   Clear
10:55 PM 14.0 °F - 12.2 °F 93% 30.34 in 5.0 mi Calm Calm - N/A   Clear
11:15 PM 14.0 °F - 14.0 °F 100% 30.34 in 3.0 mi Calm Calm - N/A   Clear
11:35 PM 15.8 °F - 15.8 °F 100% 30.34 in 5.0 mi Calm Calm - N/A   Clear
11:55 PM 10.4 °F - 6.8 °F 85% 30.34 in 6.0 mi Calm Calm - N/A   Clear